Time;durP1;ratioP1;P1;durP2;ratioP2;P2;SDS_P1;SDS_P2;PMS_P1;PMS_P2;Temp;Humidity;BMP_temperature;BMP_pressure;BME280_temperature;BME280_humidity;BME280_pressure;Samples;Min_cycle;Max_cycle;Signal;HPM_P1;HPM_P2
2023/04/06 00:00:49;;;;;;;1.40;1.30;;;;;;;;;;5119575;28;20330;-61
2023/04/06 00:03:17;;;;;;;1.50;1.40;;;;;;;;;;5118909;28;20621;-61
2023/04/06 00:05:45;;;;;;;1.40;1.30;;;;;;;;;;5119446;28;20203;-61
2023/04/06 00:08:12;;;;;;;1.40;1.30;;;;;;;;;;5118960;28;20210;-61
2023/04/06 00:10:41;;;;;;;1.70;1.50;;;;;;;;;;5119358;28;20211;-61
2023/04/06 00:13:09;;;;;;;1.50;1.40;;;;;;;;;;5119159;28;20288;-61
2023/04/06 00:15:36;;;;;;;1.30;1.20;;;;;;;;;;5119245;28;20203;-61
2023/04/06 00:18:04;;;;;;;1.60;1.50;;;;;;;;;;5119346;28;20203;-61
2023/04/06 00:20:32;;;;;;;1.30;1.20;;;;;;;;;;5116441;28;20210;-61
2023/04/06 00:22:59;;;;;;;1.50;1.40;;;;;;;;;;5098712;28;20203;-61
2023/04/06 00:25:27;;;;;;;1.60;1.50;;;;;;;;;;5099190;28;20215;-61
2023/04/06 00:27:56;;;;;;;1.70;1.60;;;;;;;;;;5098777;28;20213;-62
2023/04/06 00:30:23;;;;;;;1.45;1.20;;;;;;;;;;5098803;28;20203;-62
2023/04/06 00:32:51;;;;;;;1.48;1.38;;;;;;;;;;5098517;28;20227;-62
2023/04/06 00:35:19;;;;;;;1.60;1.50;;;;;;;;;;5098488;28;20211;-62
2023/04/06 00:37:48;;;;;;;1.85;1.75;;;;;;;;;;5098528;28;20480;-62
2023/04/06 00:40:15;;;;;;;1.60;1.42;;;;;;;;;;5098664;28;20298;-62
2023/04/06 00:42:43;;;;;;;1.50;1.40;;;;;;;;;;5098632;28;20210;-62
2023/04/06 00:45:12;;;;;;;1.60;1.50;;;;;;;;;;5098258;28;20209;-62
2023/04/06 00:47:40;;;;;;;1.60;1.50;;;;;;;;;;5100372;28;20580;-62
2023/04/06 00:50:08;;;;;;;1.50;1.40;;;;;;;;;;5118491;28;20555;-62
2023/04/06 00:52:36;;;;;;;1.40;1.30;;;;;;;;;;5118676;28;20227;-62
2023/04/06 00:55:03;;;;;;;1.40;1.30;;;;;;;;;;5118715;28;20207;-61
2023/04/06 00:57:31;;;;;;;1.40;1.30;;;;;;;;;;5118242;28;20338;-61
2023/04/06 00:59:59;;;;;;;1.77;1.35;;;;;;;;;;5118576;28;20242;-61
2023/04/06 01:02:28;;;;;;;1.48;1.38;;;;;;;;;;5118196;28;20207;-61
2023/04/06 01:04:55;;;;;;;1.60;1.50;;;;;;;;;;5118504;28;20246;-61
2023/04/06 01:07:24;;;;;;;1.63;1.52;;;;;;;;;;5118398;28;20203;-61
2023/04/06 01:09:51;;;;;;;1.48;1.38;;;;;;;;;;5118344;28;20255;-61
2023/04/06 01:12:19;;;;;;;1.67;1.58;;;;;;;;;;5118239;28;20227;-61
2023/04/06 01:14:47;;;;;;;1.70;1.60;;;;;;;;;;5118114;28;20560;-61
2023/04/06 01:17:14;;;;;;;1.60;1.50;;;;;;;;;;5118027;28;20203;-61
2023/04/06 01:19:44;;;;;;;1.65;1.55;;;;;;;;;;5118243;28;20209;-61
2023/04/06 01:22:16;;;;;;;1.80;1.70;;;;;;;;;;5118133;28;20202;-61
2023/04/06 01:24:44;;;;;;;1.52;1.42;;;;;;;;;;5118437;28;20618;-61
2023/04/06 01:27:12;;;;;;;1.70;1.60;;;;;;;;;;5118499;28;20203;-62
2023/04/06 01:29:41;;;;;;;2.10;1.55;;;;;;;;;;5118349;28;20214;-62
2023/04/06 01:32:08;;;;;;;1.70;1.60;;;;;;;;;;5115134;28;20279;-62
2023/04/06 01:34:36;;;;;;;1.52;1.42;;;;;;;;;;5117591;28;20908;-62
2023/04/06 01:37:03;;;;;;;1.90;1.80;;;;;;;;;;5118232;28;20467;-62
2023/04/06 01:39:32;;;;;;;2.00;1.85;;;;;;;;;;5118485;28;20245;-62
2023/04/06 01:42:00;;;;;;;1.98;1.70;;;;;;;;;;5117908;28;20203;-62
2023/04/06 01:44:30;;;;;;;1.58;1.48;;;;;;;;;;5117734;28;20290;-62
2023/04/06 01:46:57;;;;;;;1.60;1.50;;;;;;;;;;5118283;28;20210;-62
2023/04/06 01:49:25;;;;;;;1.80;1.70;;;;;;;;;;5117765;28;20213;-62
2023/04/06 01:51:54;;;;;;;1.70;1.60;;;;;;;;;;5117629;28;20199;-62
2023/04/06 01:54:21;;;;;;;1.80;1.70;;;;;;;;;;5117777;28;20261;-62
2023/04/06 01:56:52;;;;;;;1.58;1.48;;;;;;;;;;5117555;28;20269;-62
2023/04/06 01:59:19;;;;;;;1.70;1.60;;;;;;;;;;5103334;28;20631;-62
2023/04/06 02:01:47;;;;;;;1.60;1.50;;;;;;;;;;5097347;28;20203;-62
2023/04/06 02:04:14;;;;;;;1.50;1.40;;;;;;;;;;5097634;28;20591;-62
2023/04/06 02:06:42;;;;;;;1.90;1.80;;;;;;;;;;5097394;28;20203;-62
2023/04/06 02:09:09;;;;;;;1.98;1.88;;;;;;;;;;5096974;28;20315;-61
2023/04/06 02:11:37;;;;;;;1.88;1.70;;;;;;;;;;5097718;28;20282;-61
2023/04/06 02:14:05;;;;;;;2.33;1.50;;;;;;;;;;5098893;28;20623;-61
2023/04/06 02:16:33;;;;;;;1.70;1.60;;;;;;;;;;5101308;28;20253;-61
2023/04/06 02:19:00;;;;;;;1.50;1.40;;;;;;;;;;5101003;28;20698;-61
2023/04/06 02:21:28;;;;;;;1.70;1.60;;;;;;;;;;5101692;28;20546;-61
2023/04/06 02:23:56;;;;;;;1.63;1.50;;;;;;;;;;5100936;28;20239;-61
2023/04/06 02:26:23;;;;;;;1.70;1.60;;;;;;;;;;5109956;28;20380;-61
2023/04/06 02:28:51;;;;;;;1.60;1.50;;;;;;;;;;5121431;28;20211;-61
2023/04/06 02:31:20;;;;;;;1.77;1.67;;;;;;;;;;5121804;28;20203;-61
2023/04/06 02:33:47;;;;;;;1.58;1.48;;;;;;;;;;5108833;28;20280;-61
2023/04/06 02:36:15;;;;;;;1.83;1.67;;;;;;;;;;5100703;28;20243;-61
2023/04/06 02:38:43;;;;;;;1.73;1.63;;;;;;;;;;5100350;28;20203;-61
2023/04/06 02:41:10;;;;;;;2.03;1.90;;;;;;;;;;5100787;28;20629;-61
2023/04/06 02:43:38;;;;;;;1.70;1.60;;;;;;;;;;5104073;28;20241;-61
2023/04/06 02:46:05;;;;;;;1.60;1.50;;;;;;;;;;5113621;28;20196;-61
2023/04/06 02:48:36;;;;;;;1.80;1.70;;;;;;;;;;5111267;28;20199;-61
2023/04/06 02:51:03;;;;;;;1.75;1.65;;;;;;;;;;5120421;28;20613;-61
2023/04/06 02:53:31;;;;;;;1.52;1.42;;;;;;;;;;5120697;28;20287;-61
2023/04/06 02:55:58;;;;;;;1.80;1.67;;;;;;;;;;5120627;28;20214;-61
2023/04/06 02:58:26;;;;;;;1.63;1.52;;;;;;;;;;5120645;28;20332;-61
2023/04/06 03:00:53;;;;;;;1.73;1.63;;;;;;;;;;5113748;28;20790;-61
2023/04/06 03:03:22;;;;;;;1.80;1.70;;;;;;;;;;5100635;28;20307;-62
2023/04/06 03:05:51;;;;;;;1.90;1.80;;;;;;;;;;5100118;28;20302;-62
2023/04/06 03:08:19;;;;;;;1.92;1.83;;;;;;;;;;5100425;28;20269;-62
2023/04/06 03:10:46;;;;;;;1.85;1.75;;;;;;;;;;5100310;28;20656;-61
2023/04/06 03:13:13;;;;;;;1.90;1.77;;;;;;;;;;5100071;28;20309;-61
2023/04/06 03:15:41;;;;;;;2.00;1.80;;;;;;;;;;5100235;28;20303;-61
2023/04/06 03:18:09;;;;;;;1.60;1.50;;;;;;;;;;5100273;28;20314;-61
2023/04/06 03:20:36;;;;;;;1.80;1.70;;;;;;;;;;5099981;28;20239;-61
2023/04/06 03:23:05;;;;;;;1.90;1.80;;;;;;;;;;5100390;28;20536;-61
2023/04/06 03:25:33;;;;;;;2.17;1.98;;;;;;;;;;5098261;28;20633;-61
2023/04/06 03:28:00;;;;;;;2.10;1.90;;;;;;;;;;5104621;28;20660;-61
2023/04/06 03:30:28;;;;;;;1.70;1.60;;;;;;;;;;5120259;28;20203;-61
2023/04/06 03:32:56;;;;;;;1.70;1.60;;;;;;;;;;5119477;28;20199;-61
2023/04/06 03:35:23;;;;;;;1.67;1.58;;;;;;;;;;5119767;28;20289;-61
2023/04/06 03:37:50;;;;;;;1.70;1.60;;;;;;;;;;5120142;28;20207;-61
2023/04/06 03:40:19;;;;;;;2.05;1.88;;;;;;;;;;5120224;28;20272;-61
2023/04/06 03:42:47;;;;;;;2.00;1.90;;;;;;;;;;5120144;28;20203;-61
2023/04/06 03:45:14;;;;;;;1.77;1.67;;;;;;;;;;5119623;28;20214;-61
2023/04/06 03:47:42;;;;;;;1.85;1.75;;;;;;;;;;5119440;28;20256;-61
2023/04/06 03:50:10;;;;;;;1.90;1.80;;;;;;;;;;5120152;28;20525;-61
2023/04/06 03:52:38;;;;;;;1.95;1.75;;;;;;;;;;5119696;28;20734;-61
2023/04/06 03:55:05;;;;;;;1.98;1.80;;;;;;;;;;5118022;28;20270;-61
2023/04/06 03:57:34;;;;;;;1.70;1.60;;;;;;;;;;5099239;28;20626;-61
2023/04/06 04:00:02;;;;;;;2.40;1.70;;;;;;;;;;5099112;28;20222;-61
2023/04/06 04:02:29;;;;;;;2.00;1.80;;;;;;;;;;5099198;28;20301;-61
2023/04/06 04:04:56;;;;;;;2.20;2.00;;;;;;;;;;5099176;28;20226;-61
2023/04/06 04:07:24;;;;;;;1.90;1.80;;;;;;;;;;5098953;28;20242;-61
2023/04/06 04:09:51;;;;;;;1.77;1.67;;;;;;;;;;5098761;28;20208;-61
2023/04/06 04:12:19;;;;;;;1.80;1.70;;;;;;;;;;5098395;28;20204;-61
2023/04/06 04:14:47;;;;;;;1.98;1.88;;;;;;;;;;5097858;28;20224;-61
2023/04/06 04:17:15;;;;;;;2.10;1.90;;;;;;;;;;5112848;28;20512;-61
2023/04/06 04:19:42;;;;;;;1.65;1.55;;;;;;;;;;5118648;28;20226;-61
2023/04/06 04:22:09;;;;;;;1.73;1.63;;;;;;;;;;5119098;28;20214;-61
2023/04/06 04:24:37;;;;;;;2.00;1.90;;;;;;;;;;5118421;28;20194;-61
2023/04/06 04:27:05;;;;;;;2.00;1.90;;;;;;;;;;5118557;28;20601;-61
2023/04/06 04:29:32;;;;;;;1.85;1.75;;;;;;;;;;5118576;28;20208;-61
2023/04/06 04:32:01;;;;;;;1.88;1.77;;;;;;;;;;5118533;28;20214;-61
2023/04/06 04:34:28;;;;;;;1.98;1.83;;;;;;;;;;5118436;28;20330;-61
2023/04/06 04:36:56;;;;;;;1.92;1.83;;;;;;;;;;5117316;28;20203;-61
2023/04/06 04:39:23;;;;;;;1.60;1.50;;;;;;;;;;5117822;28;20230;-61
2023/04/06 04:41:51;;;;;;;1.80;1.70;;;;;;;;;;5117750;28;20203;-61
2023/04/06 04:44:18;;;;;;;1.88;1.77;;;;;;;;;;5107501;28;20219;-61
2023/04/06 04:46:45;;;;;;;2.00;1.90;;;;;;;;;;5096592;28;20208;-61
2023/04/06 04:49:14;;;;;;;1.92;1.83;;;;;;;;;;5097113;28;20199;-61
2023/04/06 04:51:42;;;;;;;1.85;1.75;;;;;;;;;;5096340;28;20256;-62
2023/04/06 04:54:09;;;;;;;2.10;2.00;;;;;;;;;;5096270;28;20223;-62
2023/04/06 04:56:36;;;;;;;1.80;1.70;;;;;;;;;;5095932;28;20232;-61
2023/04/06 04:59:04;;;;;;;1.90;1.80;;;;;;;;;;5096023;28;20199;-61
2023/04/06 05:01:31;;;;;;;1.90;1.80;;;;;;;;;;5096159;28;20389;-61
2023/04/06 05:03:59;;;;;;;2.30;2.10;;;;;;;;;;5096780;28;20203;-61
2023/04/06 05:06:28;;;;;;;1.98;1.88;;;;;;;;;;5095389;28;20199;-61
2023/04/06 05:08:55;;;;;;;1.80;1.70;;;;;;;;;;5095751;28;20707;-61
2023/04/06 05:11:23;;;;;;;1.80;1.70;;;;;;;;;;5102625;28;20215;-61
2023/04/06 05:13:50;;;;;;;2.38;2.20;;;;;;;;;;5116446;28;20234;-61
2023/04/06 05:16:18;;;;;;;2.50;2.30;;;;;;;;;;5116449;28;20199;-61
2023/04/06 05:18:45;;;;;;;2.10;1.95;;;;;;;;;;5115360;28;20203;-61
2023/04/06 05:21:13;;;;;;;2.03;1.90;;;;;;;;;;5116225;28;20268;-61
2023/04/06 05:23:41;;;;;;;1.95;1.83;;;;;;;;;;5116679;28;20211;-61
2023/04/06 05:26:09;;;;;;;2.00;1.90;;;;;;;;;;5116367;28;20210;-61
2023/04/06 05:28:36;;;;;;;2.22;2.03;;;;;;;;;;5116764;28;20214;-61
2023/04/06 05:31:04;;;;;;;2.10;2.00;;;;;;;;;;5116125;28;20199;-61
2023/04/06 05:33:31;;;;;;;2.20;2.10;;;;;;;;;;5101027;28;20203;-61
2023/04/06 05:36:00;;;;;;;1.95;1.85;;;;;;;;;;5095910;28;20200;-61
2023/04/06 05:38:28;;;;;;;2.03;1.92;;;;;;;;;;5097432;28;20726;-61
2023/04/06 05:40:56;;;;;;;2.20;2.10;;;;;;;;;;5115200;28;20206;-61
2023/04/06 05:43:24;;;;;;;2.00;1.90;;;;;;;;;;5116644;28;20823;-61
2023/04/06 05:45:51;;;;;;;2.33;2.13;;;;;;;;;;5116609;28;20203;-61
2023/04/06 05:48:18;;;;;;;2.25;2.05;;;;;;;;;;5114981;28;20194;-61
2023/04/06 05:50:50;;;;;;;1.80;1.70;;;;;;;;;;5116006;28;20202;-61
2023/04/06 05:53:18;;;;;;;2.17;1.98;;;;;;;;;;5116139;28;20578;-61
2023/04/06 05:55:45;;;;;;;2.00;1.80;;;;;;;;;;5116110;28;20560;-62
2023/04/06 05:58:14;;;;;;;2.08;1.90;;;;;;;;;;5115119;28;20509;-62
2023/04/06 06:00:42;;;;;;;2.08;1.90;;;;;;;;;;5116593;28;20213;-61
2023/04/06 06:03:10;;;;;;;1.95;1.85;;;;;;;;;;5113622;28;20205;-61
2023/04/06 06:05:37;;;;;;;2.22;2.03;;;;;;;;;;5115271;28;20263;-61
2023/04/06 06:08:04;;;;;;;1.73;1.63;;;;;;;;;;5116014;28;20202;-61
2023/04/06 06:10:32;;;;;;;2.20;2.00;;;;;;;;;;5116305;28;20203;-61
2023/04/06 06:12:59;;;;;;;2.22;2.03;;;;;;;;;;5115643;28;20202;-61
2023/04/06 06:15:28;;;;;;;2.90;2.20;;;;;;;;;;5115198;28;20215;-61
2023/04/06 06:17:56;;;;;;;2.30;2.10;;;;;;;;;;5115668;28;20308;-62
2023/04/06 06:20:23;;;;;;;2.28;2.08;;;;;;;;;;5115701;28;20199;-62
2023/04/06 06:22:50;;;;;;;3.72;1.67;;;;;;;;;;5115742;28;20238;-61
2023/04/06 06:25:18;;;;;;;2.13;1.90;;;;;;;;;;5115109;28;20594;-61
2023/04/06 06:27:45;;;;;;;2.40;1.85;;;;;;;;;;5114972;28;20594;-61
2023/04/06 06:30:13;;;;;;;2.30;2.10;;;;;;;;;;5114832;28;20593;-61
2023/04/06 06:32:42;;;;;;;2.35;2.15;;;;;;;;;;5115749;28;20202;-62
2023/04/06 06:35:09;;;;;;;4.03;2.20;;;;;;;;;;5115512;28;20489;-62
2023/04/06 06:37:37;;;;;;;3.60;2.20;;;;;;;;;;5115128;28;20222;-62
2023/04/06 06:40:04;;;;;;;2.40;2.20;;;;;;;;;;5115745;28;20595;-62
2023/04/06 06:42:32;;;;;;;2.72;2.28;;;;;;;;;;5114993;28;20203;-62
2023/04/06 06:44:59;;;;;;;2.10;1.90;;;;;;;;;;5115194;28;20260;-62
2023/04/06 06:47:27;;;;;;;2.60;1.80;;;;;;;;;;5114735;28;20203;-62
2023/04/06 06:49:55;;;;;;;3.33;1.70;;;;;;;;;;5114677;28;20256;-62
2023/04/06 06:52:23;;;;;;;4.40;2.13;;;;;;;;;;5115082;28;20199;-62
2023/04/06 06:54:51;;;;;;;2.45;2.00;;;;;;;;;;5115191;28;20223;-62
2023/04/06 06:57:18;;;;;;;2.50;2.00;;;;;;;;;;5115101;28;20231;-62
2023/04/06 06:59:46;;;;;;;2.35;2.13;;;;;;;;;;5116170;28;20237;-62
2023/04/06 07:02:13;;;;;;;3.10;2.15;;;;;;;;;;5118959;28;20199;-62
2023/04/06 07:04:40;;;;;;;2.33;2.13;;;;;;;;;;5119572;28;20198;-62
2023/04/06 07:07:09;;;;;;;2.53;2.28;;;;;;;;;;5119327;28;20202;-62
2023/04/06 07:09:37;;;;;;;3.03;2.20;;;;;;;;;;5118815;28;20264;-62
2023/04/06 07:12:04;;;;;;;3.10;2.80;;;;;;;;;;5118479;28;20214;-62
2023/04/06 07:14:32;;;;;;;3.10;2.03;;;;;;;;;;5118346;28;20269;-62
2023/04/06 07:16:59;;;;;;;2.40;2.20;;;;;;;;;;5118727;28;20735;-62
2023/04/06 07:19:27;;;;;;;2.53;2.20;;;;;;;;;;5118636;28;20237;-62
2023/04/06 07:21:54;;;;;;;5.05;2.38;;;;;;;;;;5118252;28;20203;-62
2023/04/06 07:24:23;;;;;;;2.67;2.03;;;;;;;;;;5118266;28;20209;-62
2023/04/06 07:26:51;;;;;;;3.03;2.08;;;;;;;;;;5118430;28;20718;-62
2023/04/06 07:29:18;;;;;;;2.92;2.28;;;;;;;;;;5117818;28;20206;-62
2023/04/06 07:31:46;;;;;;;3.22;2.50;;;;;;;;;;5118560;28;20211;-62
2023/04/06 07:34:13;;;;;;;2.60;2.40;;;;;;;;;;5117575;28;20309;-62
2023/04/06 07:36:41;;;;;;;2.38;2.10;;;;;;;;;;5118076;28;20203;-62
2023/04/06 07:39:09;;;;;;;2.80;2.38;;;;;;;;;;5117361;28;20214;-62
2023/04/06 07:41:37;;;;;;;5.45;2.55;;;;;;;;;;5117495;28;20264;-62
2023/04/06 07:44:05;;;;;;;2.60;2.22;;;;;;;;;;5118052;28;20202;-62
2023/04/06 07:46:32;;;;;;;3.38;2.28;;;;;;;;;;5116201;28;20654;-62
2023/04/06 07:49:02;;;;;;;2.95;2.00;;;;;;;;;;5117949;28;20206;-62
2023/04/06 07:51:29;;;;;;;2.47;2.25;;;;;;;;;;5117440;28;20264;-62
2023/04/06 07:53:57;;;;;;;2.58;2.15;;;;;;;;;;5118223;28;20563;-62
2023/04/06 07:56:24;;;;;;;2.67;2.30;;;;;;;;;;5117338;28;20246;-62
2023/04/06 07:58:56;;;;;;;3.53;2.53;;;;;;;;;;5117451;28;20214;-62
2023/04/06 08:01:23;;;;;;;2.67;2.25;;;;;;;;;;5117229;28;20298;-62
2023/04/06 08:03:51;;;;;;;2.60;2.40;;;;;;;;;;5117818;28;20203;-62
2023/04/06 08:06:18;;;;;;;2.50;2.25;;;;;;;;;;5117858;28;20207;-62
2023/04/06 08:08:46;;;;;;;3.50;2.40;;;;;;;;;;5117460;28;20203;-62
2023/04/06 08:11:13;;;;;;;2.50;2.20;;;;;;;;;;5116674;28;20210;-62
2023/04/06 08:13:41;;;;;;;2.60;2.30;;;;;;;;;;5117199;28;20203;-62
2023/04/06 08:16:09;;;;;;;2.17;1.98;;;;;;;;;;5117033;28;20512;-62
2023/04/06 08:18:37;;;;;;;2.50;2.30;;;;;;;;;;5108783;28;20198;-62
2023/04/06 08:21:05;;;;;;;3.92;2.20;;;;;;;;;;5116990;28;20218;-62
2023/04/06 08:23:32;;;;;;;4.22;2.40;;;;;;;;;;5116981;28;20222;-62
2023/04/06 08:25:59;;;;;;;2.55;2.35;;;;;;;;;;5117399;28;20218;-62
2023/04/06 08:28:27;;;;;;;3.40;2.55;;;;;;;;;;5116462;28;20199;-62
2023/04/06 08:30:54;;;;;;;3.20;2.35;;;;;;;;;;5117230;28;20217;-62
2023/04/06 08:33:23;;;;;;;2.75;2.13;;;;;;;;;;5116706;28;20198;-62
2023/04/06 08:35:51;;;;;;;2.33;2.13;;;;;;;;;;5116864;28;20225;-62
2023/04/06 08:38:18;;;;;;;2.50;2.22;;;;;;;;;;5116835;28;20245;-62
2023/04/06 08:40:47;;;;;;;2.30;2.10;;;;;;;;;;5116696;28;20745;-62
2023/04/06 08:43:15;;;;;;;2.33;2.10;;;;;;;;;;5116272;28;20207;-62
2023/04/06 08:45:44;;;;;;;3.17;2.40;;;;;;;;;;5116283;28;20199;-62
2023/04/06 08:48:13;;;;;;;2.50;2.30;;;;;;;;;;5116753;28;20207;-62
2023/04/06 08:50:42;;;;;;;2.42;2.22;;;;;;;;;;5116686;28;20207;-62
2023/04/06 08:53:10;;;;;;;3.03;2.30;;;;;;;;;;5117096;28;20214;-62
2023/04/06 08:55:37;;;;;;;3.10;2.38;;;;;;;;;;5116156;28;20238;-62
2023/04/06 08:58:05;;;;;;;3.50;2.63;;;;;;;;;;5116846;28;20236;-62
2023/04/06 09:00:33;;;;;;;2.88;2.33;;;;;;;;;;5116472;28;20657;-62
2023/04/06 09:03:01;;;;;;;2.63;2.17;;;;;;;;;;5114759;28;20199;-62
2023/04/06 09:05:28;;;;;;;2.75;2.40;;;;;;;;;;5114356;28;20199;-62
2023/04/06 09:07:57;;;;;;;2.50;2.30;;;;;;;;;;5098262;28;20732;-62
2023/04/06 09:10:25;;;;;;;3.33;2.38;;;;;;;;;;5095103;28;20203;-62
2023/04/06 09:12:53;;;;;;;4.65;2.50;;;;;;;;;;5094972;28;20290;-63
2023/04/06 09:15:20;;;;;;;2.67;2.47;;;;;;;;;;5095665;28;20228;-63
2023/04/06 09:17:48;;;;;;;2.60;2.40;;;;;;;;;;5108483;28;20588;-62
2023/04/06 09:20:16;;;;;;;2.50;2.30;;;;;;;;;;5115382;28;20545;-62
2023/04/06 09:22:44;;;;;;;2.60;2.40;;;;;;;;;;5115614;28;20267;-62
2023/04/06 09:25:20;;;;;;;3.78;2.90;;;;;;;;;;5115661;28;20199;-62
2023/04/06 09:27:47;;;;;;;5.13;2.38;;;;;;;;;;5111097;28;20264;-62
2023/04/06 09:30:17;;;;;;;4.20;2.42;;;;;;;;;;5099642;28;20200;-62
2023/04/06 09:32:49;;;;;;;3.30;2.50;;;;;;;;;;5094493;28;20208;-62
2023/04/06 09:35:17;;;;;;;3.35;2.50;;;;;;;;;;5094529;28;20219;-62
2023/04/06 09:37:45;;;;;;;3.55;2.40;;;;;;;;;;5094641;28;20200;-62
2023/04/06 09:40:17;;;;;;;2.72;2.25;;;;;;;;;;5110495;28;20198;-62
2023/04/06 09:42:47;;;;;;;3.00;2.28;;;;;;;;;;5115405;28;20199;-62
2023/04/06 09:45:15;;;;;;;3.08;2.28;;;;;;;;;;5115529;28;20199;-62
2023/04/06 09:47:44;;;;;;;2.35;2.15;;;;;;;;;;5114852;28;20221;-62
2023/04/06 09:50:12;;;;;;;3.10;2.17;;;;;;;;;;5115755;28;20648;-62
2023/04/06 09:52:42;;;;;;;3.97;2.38;;;;;;;;;;5095922;28;20494;-62
2023/04/06 09:55:10;;;;;;;2.40;2.15;;;;;;;;;;5094602;28;20284;-62
2023/04/06 09:57:45;;;;;;;2.67;2.45;;;;;;;;;;5094456;28;20258;-62
2023/04/06 10:00:17;;;;;;;3.10;2.45;;;;;;;;;;5094252;28;20195;-63
2023/04/06 10:02:47;;;;;;;2.60;2.40;;;;;;;;;;5094561;28;20212;-62
2023/04/06 10:05:18;;;;;;;3.10;2.30;;;;;;;;;;5094719;28;20486;-62
2023/04/06 10:07:46;;;;;;;4.38;2.35;;;;;;;;;;5094453;28;20199;-62
2023/04/06 10:10:16;;;;;;;2.33;2.03;;;;;;;;;;5093232;28;20214;-62
2023/04/06 10:12:45;;;;;;;4.03;2.13;;;;;;;;;;5094053;28;20533;-62
2023/04/06 10:15:12;;;;;;;2.75;2.08;;;;;;;;;;5094271;28;20223;-62
2023/04/06 10:17:40;;;;;;;2.40;2.20;;;;;;;;;;5093399;28;20242;-62
2023/04/06 10:20:10;;;;;;;2.50;2.00;;;;;;;;;;5093587;28;20294;-62
2023/04/06 10:22:40;;;;;;;2.30;2.10;;;;;;;;;;5094386;28;20199;-62
2023/04/06 10:25:09;;;;;;;3.25;2.10;;;;;;;;;;5094447;28;20196;-62
2023/04/06 10:27:36;;;;;;;2.53;2.28;;;;;;;;;;5095090;28;20442;-62
2023/04/06 10:30:06;;;;;;;3.53;2.10;;;;;;;;;;5094532;28;20606;-62
2023/04/06 10:32:37;;;;;;;2.20;2.00;;;;;;;;;;5093901;28;20214;-62
2023/04/06 10:35:08;;;;;;;2.20;2.00;;;;;;;;;;5095044;28;20204;-62
2023/04/06 10:37:48;;;;;;;1.70;1.60;;;;;;;;;;5096912;28;20196;-62
2023/04/06 10:40:25;;;;;;;2.30;2.10;;;;;;;;;;5098286;28;20207;-62
2023/04/06 10:42:53;;;;;;;2.05;1.90;;;;;;;;;;5097513;28;20203;-62
2023/04/06 10:45:22;;;;;;;1.88;1.67;;;;;;;;;;5098104;28;20222;-62
2023/04/06 10:47:49;;;;;;;2.35;1.85;;;;;;;;;;5107004;28;20591;-62
2023/04/06 10:50:17;;;;;;;1.80;1.60;;;;;;;;;;5117805;28;20246;-62
2023/04/06 10:52:46;;;;;;;1.90;1.80;;;;;;;;;;5118295;28;20210;-62
2023/04/06 10:55:14;;;;;;;2.00;1.80;;;;;;;;;;5117964;28;20203;-62
2023/04/06 10:57:41;;;;;;;1.70;1.60;;;;;;;;;;5117606;28;20292;-63
2023/04/06 11:00:10;;;;;;;2.05;1.85;;;;;;;;;;5117788;28;20199;-63
2023/04/06 11:02:39;;;;;;;1.77;1.67;;;;;;;;;;5117814;28;20498;-62
2023/04/06 11:05:06;;;;;;;2.00;1.80;;;;;;;;;;5118048;28;20203;-62
2023/04/06 11:07:34;;;;;;;1.63;1.52;;;;;;;;;;5116840;28;20194;-62
2023/04/06 11:10:02;;;;;;;2.75;1.73;;;;;;;;;;5117482;28;20203;-62
2023/04/06 11:12:30;;;;;;;1.60;1.50;;;;;;;;;;5117190;28;20206;-62
2023/04/06 11:15:04;;;;;;;1.77;1.67;;;;;;;;;;5117627;28;20591;-62
2023/04/06 11:17:31;;;;;;;1.65;1.50;;;;;;;;;;5111270;28;20306;-62
2023/04/06 11:20:00;;;;;;;2.05;1.83;;;;;;;;;;5097060;28;20615;-62
2023/04/06 11:22:28;;;;;;;2.38;1.80;;;;;;;;;;5096506;28;20199;-62
2023/04/06 11:24:55;;;;;;;1.60;1.50;;;;;;;;;;5097050;28;20214;-62
2023/04/06 11:27:23;;;;;;;1.85;1.70;;;;;;;;;;5100549;28;20191;-62
2023/04/06 11:29:51;;;;;;;2.80;1.70;;;;;;;;;;5096603;28;20204;-62
2023/04/06 11:32:23;;;;;;;1.80;1.70;;;;;;;;;;5097083;28;20677;-62
2023/04/06 11:34:50;;;;;;;1.60;1.50;;;;;;;;;;5097282;28;20575;-62
2023/04/06 11:37:19;;;;;;;1.50;1.40;;;;;;;;;;5096758;28;20223;-62
2023/04/06 11:39:50;;;;;;;1.60;1.38;;;;;;;;;;5097117;28;20218;-62
2023/04/06 11:42:23;;;;;;;1.73;1.63;;;;;;;;;;5097009;28;20204;-62
2023/04/06 11:44:52;;;;;;;1.67;1.58;;;;;;;;;;5096867;28;20200;-62
2023/04/06 11:47:21;;;;;;;1.83;1.67;;;;;;;;;;5095817;28;20192;-62
2023/04/06 11:49:50;;;;;;;1.70;1.50;;;;;;;;;;5111490;28;20199;-62
2023/04/06 11:52:19;;;;;;;1.48;1.38;;;;;;;;;;5116892;28;20209;-62
2023/04/06 11:54:47;;;;;;;1.70;1.60;;;;;;;;;;5117164;28;20610;-62
2023/04/06 11:57:15;;;;;;;1.67;1.58;;;;;;;;;;5115712;28;20839;-62
2023/04/06 11:59:42;;;;;;;1.60;1.50;;;;;;;;;;5116152;28;20289;-62
2023/04/06 12:02:09;;;;;;;1.60;1.50;;;;;;;;;;5116075;28;20754;-62
2023/04/06 12:04:37;;;;;;;1.77;1.67;;;;;;;;;;5116307;28;20579;-62
2023/04/06 12:07:04;;;;;;;1.60;1.50;;;;;;;;;;5115435;28;20210;-62
2023/04/06 12:09:34;;;;;;;1.55;1.45;;;;;;;;;;5116445;28;20199;-62
2023/04/06 12:12:01;;;;;;;1.40;1.30;;;;;;;;;;5116332;28;20658;-62
2023/04/06 12:14:30;;;;;;;1.60;1.50;;;;;;;;;;5116531;28;20578;-62
2023/04/06 12:16:58;;;;;;;1.45;1.35;;;;;;;;;;5116767;28;20231;-62
2023/04/06 12:19:25;;;;;;;1.50;1.40;;;;;;;;;;5074975;28;20200;-62
2023/04/06 12:21:54;;;;;;;1.98;1.50;;;;;;;;;;5075840;28;20624;-62
2023/04/06 12:24:21;;;;;;;1.48;1.38;;;;;;;;;;5075895;28;20210;-62
2023/04/06 12:26:50;;;;;;;1.45;1.35;;;;;;;;;;5074892;28;20208;-62
2023/04/06 12:29:18;;;;;;;1.60;1.50;;;;;;;;;;5100861;28;20522;-62
2023/04/06 12:31:45;;;;;;;1.70;1.60;;;;;;;;;;5116111;28;20563;-62
2023/04/06 12:34:13;;;;;;;1.40;1.25;;;;;;;;;;5116428;28;20202;-62
2023/04/06 12:36:40;;;;;;;1.30;1.20;;;;;;;;;;5115149;28;20233;-62
2023/04/06 12:39:07;;;;;;;1.80;1.70;;;;;;;;;;5115033;28;20199;-62
2023/04/06 12:41:35;;;;;;;1.80;1.70;;;;;;;;;;5099295;28;20285;-62
2023/04/06 12:44:04;;;;;;;1.70;1.60;;;;;;;;;;5094511;28;20298;-62
2023/04/06 12:46:32;;;;;;;1.55;1.45;;;;;;;;;;5074052;28;20193;-62
2023/04/06 12:49:00;;;;;;;1.58;1.45;;;;;;;;;;5075143;28;20204;-62
2023/04/06 12:51:29;;;;;;;1.58;1.38;;;;;;;;;;5074415;28;20289;-62
2023/04/06 12:53:56;;;;;;;1.40;1.30;;;;;;;;;;5073858;28;20200;-62
2023/04/06 12:56:24;;;;;;;1.30;1.20;;;;;;;;;;5095215;28;20224;-62
2023/04/06 12:58:52;;;;;;;1.38;1.27;;;;;;;;;;5114961;28;20489;-62
2023/04/06 13:01:21;;;;;;;1.40;1.30;;;;;;;;;;5115058;28;20205;-62
2023/04/06 13:03:48;;;;;;;1.40;1.30;;;;;;;;;;5114864;28;20211;-62
2023/04/06 13:06:16;;;;;;;1.50;1.33;;;;;;;;;;5115149;28;20199;-62
2023/04/06 13:08:43;;;;;;;1.27;1.17;;;;;;;;;;5115654;28;20725;-62
2023/04/06 13:11:11;;;;;;;1.30;1.20;;;;;;;;;;5115288;28;20586;-62
2023/04/06 13:13:39;;;;;;;1.48;1.38;;;;;;;;;;5115729;28;20516;-62
2023/04/06 13:16:07;;;;;;;1.42;1.20;;;;;;;;;;5114452;28;20206;-62
2023/04/06 13:18:38;;;;;;;1.40;1.30;;;;;;;;;;5114794;28;20488;-62
2023/04/06 13:21:05;;;;;;;1.40;1.30;;;;;;;;;;5114743;28;20207;-62
2023/04/06 13:23:33;;;;;;;1.40;1.30;;;;;;;;;;5114414;28;20311;-62
2023/04/06 13:26:01;;;;;;;1.30;1.20;;;;;;;;;;5113505;28;20206;-62
2023/04/06 13:28:29;;;;;;;1.35;1.25;;;;;;;;;;5114831;28;20604;-62
2023/04/06 13:30:56;;;;;;;1.40;1.30;;;;;;;;;;5115058;28;20414;-62
2023/04/06 13:33:24;;;;;;;1.50;1.40;;;;;;;;;;5114235;28;20203;-62
2023/04/06 13:35:53;;;;;;;1.35;1.25;;;;;;;;;;5112555;28;20203;-62
2023/04/06 13:38:20;;;;;;;1.30;1.20;;;;;;;;;;5093967;28;20219;-62
2023/04/06 13:40:47;;;;;;;1.30;1.20;;;;;;;;;;5093781;28;20204;-62
2023/04/06 13:43:15;;;;;;;1.50;1.40;;;;;;;;;;5094779;28;20204;-62
2023/04/06 13:45:51;;;;;;;1.30;1.20;;;;;;;;;;5094316;28;20199;-62
2023/04/06 13:48:20;;;;;;;1.58;1.48;;;;;;;;;;5093545;28;20610;-62
2023/04/06 13:50:47;;;;;;;1.33;1.23;;;;;;;;;;5093342;28;20614;-62
2023/04/06 13:53:16;;;;;;;1.33;1.23;;;;;;;;;;5092355;28;20199;-62
2023/04/06 13:55:43;;;;;;;1.40;1.30;;;;;;;;;;5094100;28;20208;-62
2023/04/06 13:58:10;;;;;;;1.38;1.27;;;;;;;;;;5093088;28;20231;-62
2023/04/06 14:00:38;;;;;;;1.15;1.13;;;;;;;;;;5093670;28;20226;-62
2023/04/06 14:03:05;;;;;;;1.30;1.20;;;;;;;;;;5093522;28;20207;-62
2023/04/06 14:05:33;;;;;;;1.38;1.27;;;;;;;;;;5093275;28;20208;-62
2023/04/06 14:08:00;;;;;;;1.40;1.30;;;;;;;;;;5096225;28;20195;-62
2023/04/06 14:10:29;;;;;;;1.33;1.10;;;;;;;;;;5115211;28;20218;-62
2023/04/06 14:12:57;;;;;;;1.23;1.13;;;;;;;;;;5118503;28;20203;-62
2023/04/06 14:15:25;;;;;;;1.75;1.65;;;;;;;;;;5118297;28;20632;-62
2023/04/06 14:17:52;;;;;;;1.35;1.20;;;;;;;;;;5118272;28;20604;-62
2023/04/06 14:20:20;;;;;;;1.35;1.25;;;;;;;;;;5117964;28;20205;-62
2023/04/06 14:22:49;;;;;;;1.50;1.40;;;;;;;;;;5116817;28;20262;-62
2023/04/06 14:25:16;;;;;;;1.27;1.17;;;;;;;;;;5117203;28;20226;-62
2023/04/06 14:27:45;;;;;;;1.20;1.10;;;;;;;;;;5117519;28;20282;-62
2023/04/06 14:30:13;;;;;;;1.30;1.20;;;;;;;;;;5117357;28;20228;-62
2023/04/06 14:32:40;;;;;;;1.17;1.10;;;;;;;;;;5117770;28;20498;-62
2023/04/06 14:35:08;;;;;;;1.23;1.20;;;;;;;;;;5117454;28;20206;-62
2023/04/06 14:37:35;;;;;;;1.30;1.20;;;;;;;;;;5118008;28;20322;-62
2023/04/06 14:40:02;;;;;;;1.30;1.20;;;;;;;;;;5117270;28;20242;-62
2023/04/06 14:42:30;;;;;;;1.30;1.20;;;;;;;;;;5117100;28;20543;-62
2023/04/06 14:44:58;;;;;;;1.45;1.35;;;;;;;;;;5117581;28;20198;-62
2023/04/06 14:47:26;;;;;;;1.33;1.23;;;;;;;;;;5117517;28;20657;-62